Cabery, Illinois
Current Conditions -  °F | °C
As of 8:35 PM on Friday 24 Oct 2014 (Local Time) from KIKK Reporting Station
Scattered Clouds Scattered Clouds  
Wind Chill: 53°   Ceiling: Unl
Heat Index: 53°   Visibility: 10mi
Dew Point: 47°   Wind: 7mph
Humidity: 80%   Direction: 220°SW
Pressure: 29.99"   Gusts: NA
Location:  40.99°N, 88.2°W
Report Text: KIKK 250135Z AUTO 22006KT 10SM SCT085 12/09 A2999 RMK AO2 T01190085
Loading
Personal Weather Stations






























Interactive Weather Map
Tropical Storm Tracking
New forecast layout! Learn more

10-Day Weather Forecast

Advertisements
Track Severe Weather on mobile